KROX/ROX METAR and TAF weather

Enter ICAO airport designator
Station Type Date Time Source
KROX METAR 2021/06/24 05:35 UTC NOAA

KROX 240535Z AUTO 32005KT 10SM CLR 16/11 A2973 RMK AO2


Station Type Date Time Source
KROX Decoded METAR 2021/06/24 05:35 UTC NOAA

Roseau, Roseau Municipal Airport/Rudy Billberg Field, MN, United States (KROX) 48-51N 095-42W
Jun 24, 2021 - 01:35 AM EDT / 2021.06.24 0535 UTC
Wind: from the NW (320 degrees) at 6 MPH (5 KT):0
Visibility: 10 mile(s):0
Sky conditions: clear
Temperature: 60 F (16 C)
Dew Point: 51 F (11 C)
Relative Humidity: 72%
Pressure (altimeter): 29.73 in. Hg (1006 hPa)
ob: KROX 240535Z AUTO 32005KT 10SM CLR 16/11 A2973 RMK AO2
cycle: 5

Station Type Date Time Source
KROX TAF UTC NOAA

Error!

Example: see airport list